sensor_id;sensor_type;location;lat;lon;timestamp;P1;durP1;ratioP1;P2;durP2;ratioP2
22614;SDS011;11474;50.790;0.298;2023-07-29T00:00:24;6.78;;;1.63;;
22614;SDS011;11474;50.790;0.298;2023-07-29T00:02:50;6.93;;;1.90;;
22614;SDS011;11474;50.790;0.298;2023-07-29T00:05:16;7.32;;;1.83;;
22614;SDS011;11474;50.790;0.298;2023-07-29T00:07:42;7.43;;;1.90;;
22614;SDS011;11474;50.790;0.298;2023-07-29T00:10:08;5.22;;;1.73;;
22614;SDS011;11474;50.790;0.298;2023-07-29T00:12:34;7.57;;;1.70;;
22614;SDS011;11474;50.790;0.298;2023-07-29T00:15:00;7.53;;;1.90;;
22614;SDS011;11474;50.790;0.298;2023-07-29T00:17:26;9.23;;;1.70;;
22614;SDS011;11474;50.790;0.298;2023-07-29T00:19:52;8.50;;;1.63;;
22614;SDS011;11474;50.790;0.298;2023-07-29T00:22:19;7.97;;;1.80;;
22614;SDS011;11474;50.790;0.298;2023-07-29T00:24:47;8.20;;;1.70;;
22614;SDS011;11474;50.790;0.298;2023-07-29T00:27:16;8.50;;;1.98;;
22614;SDS011;11474;50.790;0.298;2023-07-29T00:29:42;10.10;;;1.90;;
22614;SDS011;11474;50.790;0.298;2023-07-29T00:32:08;5.33;;;1.80;;
22614;SDS011;11474;50.790;0.298;2023-07-29T00:34:35;6.60;;;1.90;;
22614;SDS011;11474;50.790;0.298;2023-07-29T00:37:01;7.63;;;1.90;;
22614;SDS011;11474;50.790;0.298;2023-07-29T00:39:27;5.40;;;1.70;;
22614;SDS011;11474;50.790;0.298;2023-07-29T00:41:53;8.15;;;2.15;;
22614;SDS011;11474;50.790;0.298;2023-07-29T00:44:19;11.90;;;2.15;;
22614;SDS011;11474;50.790;0.298;2023-07-29T00:46:45;8.13;;;1.87;;
22614;SDS011;11474;50.790;0.298;2023-07-29T00:49:13;8.18;;;2.15;;
22614;SDS011;11474;50.790;0.298;2023-07-29T00:51:39;8.80;;;2.22;;
22614;SDS011;11474;50.790;0.298;2023-07-29T00:54:05;7.45;;;2.30;;
22614;SDS011;11474;50.790;0.298;2023-07-29T00:56:31;12.32;;;2.53;;
22614;SDS011;11474;50.790;0.298;2023-07-29T00:58:57;10.48;;;2.65;;
22614;SDS011;11474;50.790;0.298;2023-07-29T01:01:26;7.05;;;2.03;;
22614;SDS011;11474;50.790;0.298;2023-07-29T01:03:53;7.25;;;2.30;;
22614;SDS011;11474;50.790;0.298;2023-07-29T01:06:25;9.90;;;2.25;;
22614;SDS011;11474;50.790;0.298;2023-07-29T01:08:59;11.97;;;2.60;;
22614;SDS011;11474;50.790;0.298;2023-07-29T01:11:34;6.90;;;2.50;;
22614;SDS011;11474;50.790;0.298;2023-07-29T01:14:04;11.50;;;2.53;;
22614;SDS011;11474;50.790;0.298;2023-07-29T01:16:39;6.50;;;2.25;;
22614;SDS011;11474;50.790;0.298;2023-07-29T01:19:05;9.80;;;2.45;;
22614;SDS011;11474;50.790;0.298;2023-07-29T01:21:33;8.98;;;2.50;;
22614;SDS011;11474;50.790;0.298;2023-07-29T01:24:00;8.57;;;2.35;;
22614;SDS011;11474;50.790;0.298;2023-07-29T01:26:26;12.32;;;2.80;;
22614;SDS011;11474;50.790;0.298;2023-07-29T01:28:54;12.13;;;2.75;;
22614;SDS011;11474;50.790;0.298;2023-07-29T01:31:23;10.57;;;2.88;;
22614;SDS011;11474;50.790;0.298;2023-07-29T01:33:57;7.78;;;2.60;;
22614;SDS011;11474;50.790;0.298;2023-07-29T01:36:25;8.63;;;3.10;;
22614;SDS011;11474;50.790;0.298;2023-07-29T01:38:52;11.30;;;2.92;;
22614;SDS011;11474;50.790;0.298;2023-07-29T01:41:20;10.90;;;2.90;;
22614;SDS011;11474;50.790;0.298;2023-07-29T01:43:47;9.30;;;2.70;;
22614;SDS011;11474;50.790;0.298;2023-07-29T01:46:14;9.23;;;2.78;;
22614;SDS011;11474;50.790;0.298;2023-07-29T01:48:40;12.20;;;2.90;;
22614;SDS011;11474;50.790;0.298;2023-07-29T01:51:06;8.80;;;2.70;;
22614;SDS011;11474;50.790;0.298;2023-07-29T01:53:33;11.38;;;2.50;;
22614;SDS011;11474;50.790;0.298;2023-07-29T01:55:59;16.17;;;3.17;;
22614;SDS011;11474;50.790;0.298;2023-07-29T01:58:25;10.57;;;3.00;;
22614;SDS011;11474;50.790;0.298;2023-07-29T02:00:51;10.30;;;3.42;;
22614;SDS011;11474;50.790;0.298;2023-07-29T02:03:17;13.30;;;3.05;;
22614;SDS011;11474;50.790;0.298;2023-07-29T02:05:43;14.63;;;3.20;;
22614;SDS011;11474;50.790;0.298;2023-07-29T02:08:10;11.70;;;3.07;;
22614;SDS011;11474;50.790;0.298;2023-07-29T02:10:36;17.85;;;3.30;;
22614;SDS011;11474;50.790;0.298;2023-07-29T02:13:02;12.65;;;3.40;;
22614;SDS011;11474;50.790;0.298;2023-07-29T02:15:29;16.27;;;3.10;;
22614;SDS011;11474;50.790;0.298;2023-07-29T02:17:55;11.05;;;2.85;;
22614;SDS011;11474;50.790;0.298;2023-07-29T02:20:24;18.55;;;3.28;;
22614;SDS011;11474;50.790;0.298;2023-07-29T02:22:50;14.68;;;3.25;;
22614;SDS011;11474;50.790;0.298;2023-07-29T02:25:16;12.48;;;3.15;;
22614;SDS011;11474;50.790;0.298;2023-07-29T02:27:42;13.80;;;3.13;;
22614;SDS011;11474;50.790;0.298;2023-07-29T02:30:09;12.35;;;3.45;;
22614;SDS011;11474;50.790;0.298;2023-07-29T02:32:35;12.57;;;3.13;;
22614;SDS011;11474;50.790;0.298;2023-07-29T02:35:01;11.43;;;3.90;;
22614;SDS011;11474;50.790;0.298;2023-07-29T02:37:27;15.43;;;3.58;;
22614;SDS011;11474;50.790;0.298;2023-07-29T02:39:54;20.25;;;3.78;;
22614;SDS011;11474;50.790;0.298;2023-07-29T02:42:20;13.63;;;3.80;;
22614;SDS011;11474;50.790;0.298;2023-07-29T02:44:46;11.80;;;3.38;;
22614;SDS011;11474;50.790;0.298;2023-07-29T02:47:12;15.25;;;3.20;;
22614;SDS011;11474;50.790;0.298;2023-07-29T02:49:38;14.07;;;3.73;;
22614;SDS011;11474;50.790;0.298;2023-07-29T02:52:04;16.70;;;3.75;;
22614;SDS011;11474;50.790;0.298;2023-07-29T02:54:30;16.42;;;3.40;;
22614;SDS011;11474;50.790;0.298;2023-07-29T02:56:56;12.90;;;3.47;;
22614;SDS011;11474;50.790;0.298;2023-07-29T02:59:23;10.93;;;3.22;;
22614;SDS011;11474;50.790;0.298;2023-07-29T03:01:49;14.35;;;3.42;;
22614;SDS011;11474;50.790;0.298;2023-07-29T03:04:15;16.27;;;3.45;;
22614;SDS011;11474;50.790;0.298;2023-07-29T03:06:41;14.27;;;3.42;;
22614;SDS011;11474;50.790;0.298;2023-07-29T03:09:08;16.23;;;4.50;;
22614;SDS011;11474;50.790;0.298;2023-07-29T03:11:34;14.30;;;3.30;;
22614;SDS011;11474;50.790;0.298;2023-07-29T03:14:00;18.35;;;3.78;;
22614;SDS011;11474;50.790;0.298;2023-07-29T03:16:27;18.00;;;3.55;;
22614;SDS011;11474;50.790;0.298;2023-07-29T03:18:53;12.90;;;3.40;;
22614;SDS011;11474;50.790;0.298;2023-07-29T03:21:19;16.60;;;3.22;;
22614;SDS011;11474;50.790;0.298;2023-07-29T03:23:45;11.50;;;3.13;;
22614;SDS011;11474;50.790;0.298;2023-07-29T03:26:11;16.10;;;3.60;;
22614;SDS011;11474;50.790;0.298;2023-07-29T03:28:38;13.88;;;3.38;;
22614;SDS011;11474;50.790;0.298;2023-07-29T03:31:04;15.48;;;3.30;;
22614;SDS011;11474;50.790;0.298;2023-07-29T03:33:31;15.00;;;3.50;;
22614;SDS011;11474;50.790;0.298;2023-07-29T03:35:57;12.73;;;3.58;;
22614;SDS011;11474;50.790;0.298;2023-07-29T03:38:23;18.15;;;3.35;;
22614;SDS011;11474;50.790;0.298;2023-07-29T03:40:50;15.07;;;3.25;;
22614;SDS011;11474;50.790;0.298;2023-07-29T03:43:16;14.53;;;3.57;;
22614;SDS011;11474;50.790;0.298;2023-07-29T03:45:42;13.15;;;3.58;;
22614;SDS011;11474;50.790;0.298;2023-07-29T03:48:08;12.30;;;3.33;;
22614;SDS011;11474;50.790;0.298;2023-07-29T03:50:35;9.20;;;3.47;;
22614;SDS011;11474;50.790;0.298;2023-07-29T03:53:03;11.80;;;3.67;;
22614;SDS011;11474;50.790;0.298;2023-07-29T03:55:29;10.70;;;3.53;;
22614;SDS011;11474;50.790;0.298;2023-07-29T03:57:56;13.52;;;3.63;;
22614;SDS011;11474;50.790;0.298;2023-07-29T04:00:22;9.27;;;3.42;;
22614;SDS011;11474;50.790;0.298;2023-07-29T04:02:48;10.50;;;3.20;;
22614;SDS011;11474;50.790;0.298;2023-07-29T04:05:15;10.48;;;3.47;;
22614;SDS011;11474;50.790;0.298;2023-07-29T04:07:41;8.33;;;2.93;;
22614;SDS011;11474;50.790;0.298;2023-07-29T04:10:08;9.00;;;2.90;;
22614;SDS011;11474;50.790;0.298;2023-07-29T04:12:34;10.02;;;3.10;;
22614;SDS011;11474;50.790;0.298;2023-07-29T04:15:00;8.13;;;3.25;;
22614;SDS011;11474;50.790;0.298;2023-07-29T04:17:26;8.88;;;3.30;;
22614;SDS011;11474;50.790;0.298;2023-07-29T04:19:52;11.10;;;3.47;;
22614;SDS011;11474;50.790;0.298;2023-07-29T04:22:18;10.50;;;3.38;;
22614;SDS011;11474;50.790;0.298;2023-07-29T04:24:44;8.77;;;3.23;;
22614;SDS011;11474;50.790;0.298;2023-07-29T04:27:10;7.20;;;2.50;;
22614;SDS011;11474;50.790;0.298;2023-07-29T04:29:37;6.03;;;2.45;;
22614;SDS011;11474;50.790;0.298;2023-07-29T04:32:03;7.82;;;2.80;;
22614;SDS011;11474;50.790;0.298;2023-07-29T04:34:29;8.32;;;2.53;;
22614;SDS011;11474;50.790;0.298;2023-07-29T04:36:55;8.98;;;2.80;;
22614;SDS011;11474;50.790;0.298;2023-07-29T04:39:21;9.73;;;2.50;;
22614;SDS011;11474;50.790;0.298;2023-07-29T04:41:47;7.88;;;2.90;;
22614;SDS011;11474;50.790;0.298;2023-07-29T04:44:14;8.80;;;2.50;;
22614;SDS011;11474;50.790;0.298;2023-07-29T04:46:40;7.07;;;2.90;;
22614;SDS011;11474;50.790;0.298;2023-07-29T04:49:06;10.73;;;2.70;;
22614;SDS011;11474;50.790;0.298;2023-07-29T04:51:32;8.48;;;2.72;;
22614;SDS011;11474;50.790;0.298;2023-07-29T04:53:58;6.30;;;2.45;;
22614;SDS011;11474;50.790;0.298;2023-07-29T04:56:24;8.82;;;3.00;;
22614;SDS011;11474;50.790;0.298;2023-07-29T04:58:51;9.77;;;3.10;;
22614;SDS011;11474;50.790;0.298;2023-07-29T05:01:17;7.72;;;2.80;;
22614;SDS011;11474;50.790;0.298;2023-07-29T05:03:44;11.18;;;3.08;;
22614;SDS011;11474;50.790;0.298;2023-07-29T05:06:10;7.40;;;2.78;;
22614;SDS011;11474;50.790;0.298;2023-07-29T05:08:36;7.43;;;3.20;;
22614;SDS011;11474;50.790;0.298;2023-07-29T05:11:02;8.05;;;2.85;;
22614;SDS011;11474;50.790;0.298;2023-07-29T05:13:28;6.80;;;2.95;;
22614;SDS011;11474;50.790;0.298;2023-07-29T05:15:54;9.43;;;3.50;;
22614;SDS011;11474;50.790;0.298;2023-07-29T05:18:21;10.13;;;3.25;;
22614;SDS011;11474;50.790;0.298;2023-07-29T05:20:47;10.13;;;3.88;;
22614;SDS011;11474;50.790;0.298;2023-07-29T05:23:13;11.50;;;3.30;;
22614;SDS011;11474;50.790;0.298;2023-07-29T05:25:39;8.60;;;3.15;;
22614;SDS011;11474;50.790;0.298;2023-07-29T05:28:05;10.65;;;3.25;;
22614;SDS011;11474;50.790;0.298;2023-07-29T05:30:32;8.90;;;3.47;;
22614;SDS011;11474;50.790;0.298;2023-07-29T05:33:02;7.63;;;3.40;;
22614;SDS011;11474;50.790;0.298;2023-07-29T05:35:28;10.52;;;3.60;;
22614;SDS011;11474;50.790;0.298;2023-07-29T05:37:54;11.98;;;3.60;;
22614;SDS011;11474;50.790;0.298;2023-07-29T05:40:20;9.90;;;3.70;;
22614;SDS011;11474;50.790;0.298;2023-07-29T05:42:46;12.70;;;3.60;;
22614;SDS011;11474;50.790;0.298;2023-07-29T05:45:13;10.63;;;3.90;;
22614;SDS011;11474;50.790;0.298;2023-07-29T05:47:39;14.30;;;3.50;;
22614;SDS011;11474;50.790;0.298;2023-07-29T05:50:05;9.05;;;3.20;;
22614;SDS011;11474;50.790;0.298;2023-07-29T05:52:31;15.52;;;3.65;;
22614;SDS011;11474;50.790;0.298;2023-07-29T05:54:58;11.25;;;3.50;;
22614;SDS011;11474;50.790;0.298;2023-07-29T05:57:24;8.05;;;3.40;;
22614;SDS011;11474;50.790;0.298;2023-07-29T05:59:50;9.70;;;3.50;;
22614;SDS011;11474;50.790;0.298;2023-07-29T06:02:16;10.02;;;3.88;;
22614;SDS011;11474;50.790;0.298;2023-07-29T06:04:42;15.23;;;4.72;;
22614;SDS011;11474;50.790;0.298;2023-07-29T06:07:08;11.35;;;3.60;;
22614;SDS011;11474;50.790;0.298;2023-07-29T06:09:34;10.93;;;3.22;;
22614;SDS011;11474;50.790;0.298;2023-07-29T06:12:00;10.13;;;3.40;;
22614;SDS011;11474;50.790;0.298;2023-07-29T06:14:26;10.30;;;3.30;;
22614;SDS011;11474;50.790;0.298;2023-07-29T06:16:53;7.35;;;2.90;;
22614;SDS011;11474;50.790;0.298;2023-07-29T06:19:22;16.58;;;4.57;;
22614;SDS011;11474;50.790;0.298;2023-07-29T06:21:48;12.32;;;3.42;;
22614;SDS011;11474;50.790;0.298;2023-07-29T06:24:14;12.57;;;3.75;;
22614;SDS011;11474;50.790;0.298;2023-07-29T06:26:40;11.93;;;3.70;;
22614;SDS011;11474;50.790;0.298;2023-07-29T06:29:06;10.63;;;3.13;;
22614;SDS011;11474;50.790;0.298;2023-07-29T06:31:32;13.10;;;3.40;;
22614;SDS011;11474;50.790;0.298;2023-07-29T06:33:58;11.07;;;3.53;;
22614;SDS011;11474;50.790;0.298;2023-07-29T06:36:24;12.23;;;3.47;;
22614;SDS011;11474;50.790;0.298;2023-07-29T06:38:51;13.00;;;3.38;;
22614;SDS011;11474;50.790;0.298;2023-07-29T06:41:17;13.40;;;3.58;;
22614;SDS011;11474;50.790;0.298;2023-07-29T06:43:43;11.32;;;3.10;;
22614;SDS011;11474;50.790;0.298;2023-07-29T06:46:09;9.95;;;3.35;;
22614;SDS011;11474;50.790;0.298;2023-07-29T06:48:36;13.07;;;3.38;;
22614;SDS011;11474;50.790;0.298;2023-07-29T06:51:02;12.32;;;3.83;;
22614;SDS011;11474;50.790;0.298;2023-07-29T06:53:28;13.07;;;3.80;;
22614;SDS011;11474;50.790;0.298;2023-07-29T06:55:54;14.63;;;3.42;;
22614;SDS011;11474;50.790;0.298;2023-07-29T06:58:20;14.05;;;3.90;;
22614;SDS011;11474;50.790;0.298;2023-07-29T07:00:46;12.30;;;3.33;;
22614;SDS011;11474;50.790;0.298;2023-07-29T07:03:13;11.55;;;3.42;;
22614;SDS011;11474;50.790;0.298;2023-07-29T07:05:39;12.40;;;3.22;;
22614;SDS011;11474;50.790;0.298;2023-07-29T07:08:05;16.02;;;3.78;;
22614;SDS011;11474;50.790;0.298;2023-07-29T07:10:31;16.00;;;4.20;;
22614;SDS011;11474;50.790;0.298;2023-07-29T07:12:59;14.27;;;4.10;;
22614;SDS011;11474;50.790;0.298;2023-07-29T07:15:25;12.93;;;3.10;;
22614;SDS011;11474;50.790;0.298;2023-07-29T07:17:51;17.95;;;3.90;;
22614;SDS011;11474;50.790;0.298;2023-07-29T07:20:17;16.52;;;4.00;;
22614;SDS011;11474;50.790;0.298;2023-07-29T07:22:43;13.65;;;4.25;;
22614;SDS011;11474;50.790;0.298;2023-07-29T07:25:10;16.90;;;3.78;;
22614;SDS011;11474;50.790;0.298;2023-07-29T07:27:36;14.03;;;4.53;;
22614;SDS011;11474;50.790;0.298;2023-07-29T07:30:03;11.73;;;4.13;;
22614;SDS011;11474;50.790;0.298;2023-07-29T07:32:29;13.75;;;3.70;;
22614;SDS011;11474;50.790;0.298;2023-07-29T07:34:55;15.30;;;3.92;;
22614;SDS011;11474;50.790;0.298;2023-07-29T07:37:21;17.27;;;4.35;;
22614;SDS011;11474;50.790;0.298;2023-07-29T07:39:47;13.40;;;3.58;;
22614;SDS011;11474;50.790;0.298;2023-07-29T07:42:14;13.27;;;3.38;;
22614;SDS011;11474;50.790;0.298;2023-07-29T07:44:40;11.95;;;3.45;;
22614;SDS011;11474;50.790;0.298;2023-07-29T07:47:06;14.98;;;3.50;;
22614;SDS011;11474;50.790;0.298;2023-07-29T07:49:32;17.00;;;4.13;;
22614;SDS011;11474;50.790;0.298;2023-07-29T07:51:58;15.68;;;3.90;;
22614;SDS011;11474;50.790;0.298;2023-07-29T07:54:24;16.05;;;3.45;;
22614;SDS011;11474;50.790;0.298;2023-07-29T07:56:50;11.43;;;3.13;;
22614;SDS011;11474;50.790;0.298;2023-07-29T07:59:16;12.48;;;3.08;;
22614;SDS011;11474;50.790;0.298;2023-07-29T08:01:42;11.45;;;3.10;;
22614;SDS011;11474;50.790;0.298;2023-07-29T08:04:09;10.90;;;2.97;;
22614;SDS011;11474;50.790;0.298;2023-07-29T08:06:35;14.70;;;3.33;;
22614;SDS011;11474;50.790;0.298;2023-07-29T08:09:01;12.95;;;2.92;;
22614;SDS011;11474;50.790;0.298;2023-07-29T08:11:27;13.10;;;3.33;;
22614;SDS011;11474;50.790;0.298;2023-07-29T08:13:53;13.77;;;3.33;;
22614;SDS011;11474;50.790;0.298;2023-07-29T08:16:19;12.52;;;3.35;;
22614;SDS011;11474;50.790;0.298;2023-07-29T08:18:45;13.15;;;3.38;;
22614;SDS011;11474;50.790;0.298;2023-07-29T08:21:12;14.23;;;3.00;;
22614;SDS011;11474;50.790;0.298;2023-07-29T08:23:38;13.63;;;3.05;;
22614;SDS011;11474;50.790;0.298;2023-07-29T08:26:05;10.20;;;3.00;;
22614;SDS011;11474;50.790;0.298;2023-07-29T08:28:32;12.27;;;3.10;;
22614;SDS011;11474;50.790;0.298;2023-07-29T08:30:59;21.40;;;3.17;;
22614;SDS011;11474;50.790;0.298;2023-07-29T08:33:25;11.73;;;3.10;;
22614;SDS011;11474;50.790;0.298;2023-07-29T08:35:51;14.52;;;3.45;;
22614;SDS011;11474;50.790;0.298;2023-07-29T08:38:17;16.13;;;3.40;;
22614;SDS011;11474;50.790;0.298;2023-07-29T08:40:52;11.18;;;3.00;;
22614;SDS011;11474;50.790;0.298;2023-07-29T08:43:20;14.05;;;3.13;;
22614;SDS011;11474;50.790;0.298;2023-07-29T08:45:47;17.05;;;3.20;;
22614;SDS011;11474;50.790;0.298;2023-07-29T08:48:15;13.35;;;3.08;;
22614;SDS011;11474;50.790;0.298;2023-07-29T08:50:45;14.52;;;3.40;;
22614;SDS011;11474;50.790;0.298;2023-07-29T08:53:11;11.90;;;3.08;;
22614;SDS011;11474;50.790;0.298;2023-07-29T08:55:38;13.45;;;3.40;;
22614;SDS011;11474;50.790;0.298;2023-07-29T08:58:04;13.18;;;2.92;;
22614;SDS011;11474;50.790;0.298;2023-07-29T09:00:31;12.97;;;2.93;;
22614;SDS011;11474;50.790;0.298;2023-07-29T09:02:57;12.30;;;2.67;;
22614;SDS011;11474;50.790;0.298;2023-07-29T09:05:27;12.00;;;2.83;;
22614;SDS011;11474;50.790;0.298;2023-07-29T09:07:53;11.52;;;2.75;;
22614;SDS011;11474;50.790;0.298;2023-07-29T09:10:21;16.23;;;3.38;;
22614;SDS011;11474;50.790;0.298;2023-07-29T09:12:50;18.13;;;3.60;;
22614;SDS011;11474;50.790;0.298;2023-07-29T09:15:29;16.67;;;3.13;;
22614;SDS011;11474;50.790;0.298;2023-07-29T09:17:57;13.88;;;3.20;;
22614;SDS011;11474;50.790;0.298;2023-07-29T09:20:26;16.88;;;2.88;;
22614;SDS011;11474;50.790;0.298;2023-07-29T09:22:57;13.52;;;3.28;;
22614;SDS011;11474;50.790;0.298;2023-07-29T09:25:25;12.98;;;2.85;;
22614;SDS011;11474;50.790;0.298;2023-07-29T09:27:51;13.15;;;3.08;;
22614;SDS011;11474;50.790;0.298;2023-07-29T09:30:17;11.47;;;2.80;;
22614;SDS011;11474;50.790;0.298;2023-07-29T09:32:43;11.73;;;2.67;;
22614;SDS011;11474;50.790;0.298;2023-07-29T09:35:10;12.45;;;2.80;;
22614;SDS011;11474;50.790;0.298;2023-07-29T09:37:37;10.52;;;2.72;;
22614;SDS011;11474;50.790;0.298;2023-07-29T09:40:04;12.23;;;2.73;;
22614;SDS011;11474;50.790;0.298;2023-07-29T09:42:30;9.60;;;2.60;;
22614;SDS011;11474;50.790;0.298;2023-07-29T09:44:56;10.65;;;2.75;;
22614;SDS011;11474;50.790;0.298;2023-07-29T09:47:23;9.98;;;2.65;;
22614;SDS011;11474;50.790;0.298;2023-07-29T09:49:50;12.97;;;2.97;;
22614;SDS011;11474;50.790;0.298;2023-07-29T09:52:17;19.97;;;3.30;;
22614;SDS011;11474;50.790;0.298;2023-07-29T09:54:44;15.60;;;3.07;;
22614;SDS011;11474;50.790;0.298;2023-07-29T09:57:14;15.60;;;3.03;;
22614;SDS011;11474;50.790;0.298;2023-07-29T09:59:42;15.17;;;3.10;;
22614;SDS011;11474;50.790;0.298;2023-07-29T10:02:09;15.40;;;3.15;;
22614;SDS011;11474;50.790;0.298;2023-07-29T10:04:40;14.15;;;3.10;;
22614;SDS011;11474;50.790;0.298;2023-07-29T10:07:07;16.92;;;2.88;;
22614;SDS011;11474;50.790;0.298;2023-07-29T10:09:33;13.57;;;3.50;;
22614;SDS011;11474;50.790;0.298;2023-07-29T10:12:00;15.48;;;3.10;;
22614;SDS011;11474;50.790;0.298;2023-07-29T10:14:27;15.52;;;3.60;;
22614;SDS011;11474;50.790;0.298;2023-07-29T10:16:53;12.23;;;3.13;;
22614;SDS011;11474;50.790;0.298;2023-07-29T10:19:22;13.82;;;3.30;;
22614;SDS011;11474;50.790;0.298;2023-07-29T10:21:48;14.07;;;3.15;;
22614;SDS011;11474;50.790;0.298;2023-07-29T10:24:15;11.95;;;3.25;;
22614;SDS011;11474;50.790;0.298;2023-07-29T10:26:46;9.77;;;3.13;;
22614;SDS011;11474;50.790;0.298;2023-07-29T10:29:12;14.70;;;2.95;;
22614;SDS011;11474;50.790;0.298;2023-07-29T10:31:39;14.93;;;3.40;;
22614;SDS011;11474;50.790;0.298;2023-07-29T10:34:06;16.00;;;3.60;;
22614;SDS011;11474;50.790;0.298;2023-07-29T10:36:32;18.00;;;3.38;;
22614;SDS011;11474;50.790;0.298;2023-07-29T10:38:58;13.40;;;3.20;;
22614;SDS011;11474;50.790;0.298;2023-07-29T10:41:41;13.73;;;3.33;;
22614;SDS011;11474;50.790;0.298;2023-07-29T10:46:55;15.00;;;4.15;;
22614;SDS011;11474;50.790;0.298;2023-07-29T10:49:23;15.05;;;3.15;;
22614;SDS011;11474;50.790;0.298;2023-07-29T10:51:49;12.65;;;3.00;;
22614;SDS011;11474;50.790;0.298;2023-07-29T10:54:15;18.17;;;3.28;;
22614;SDS011;11474;50.790;0.298;2023-07-29T10:56:42;18.17;;;3.65;;
22614;SDS011;11474;50.790;0.298;2023-07-29T11:01:41;18.17;;;3.22;;
22614;SDS011;11474;50.790;0.298;2023-07-29T11:12:35;15.40;;;3.30;;
22614;SDS011;11474;50.790;0.298;2023-07-29T11:15:02;15.30;;;3.70;;
22614;SDS011;11474;50.790;0.298;2023-07-29T11:17:30;17.77;;;3.53;;
22614;SDS011;11474;50.790;0.298;2023-07-29T11:20:02;17.92;;;3.67;;
22614;SDS011;11474;50.790;0.298;2023-07-29T11:22:29;19.55;;;3.67;;
22614;SDS011;11474;50.790;0.298;2023-07-29T11:24:55;17.38;;;3.63;;
22614;SDS011;11474;50.790;0.298;2023-07-29T11:27:21;20.98;;;3.85;;
22614;SDS011;11474;50.790;0.298;2023-07-29T11:29:48;18.67;;;3.70;;
22614;SDS011;11474;50.790;0.298;2023-07-29T11:32:14;17.58;;;4.78;;
22614;SDS011;11474;50.790;0.298;2023-07-29T11:34:41;18.52;;;3.80;;
22614;SDS011;11474;50.790;0.298;2023-07-29T11:37:10;19.92;;;4.10;;
22614;SDS011;11474;50.790;0.298;2023-07-29T11:39:40;17.42;;;3.47;;
22614;SDS011;11474;50.790;0.298;2023-07-29T11:42:06;16.70;;;3.78;;
22614;SDS011;11474;50.790;0.298;2023-07-29T11:44:32;17.67;;;4.05;;
22614;SDS011;11474;50.790;0.298;2023-07-29T11:46:58;24.23;;;4.32;;
22614;SDS011;11474;50.790;0.298;2023-07-29T11:49:24;18.50;;;3.78;;
22614;SDS011;11474;50.790;0.298;2023-07-29T11:51:50;22.77;;;4.50;;
22614;SDS011;11474;50.790;0.298;2023-07-29T11:54:16;17.70;;;3.63;;
22614;SDS011;11474;50.790;0.298;2023-07-29T11:56:46;20.15;;;4.18;;
22614;SDS011;11474;50.790;0.298;2023-07-29T11:59:12;20.75;;;3.67;;
22614;SDS011;11474;50.790;0.298;2023-07-29T12:01:38;24.07;;;3.83;;
22614;SDS011;11474;50.790;0.298;2023-07-29T12:04:05;19.75;;;4.00;;
22614;SDS011;11474;50.790;0.298;2023-07-29T12:06:32;20.02;;;4.22;;
22614;SDS011;11474;50.790;0.298;2023-07-29T12:08:58;20.90;;;4.25;;
22614;SDS011;11474;50.790;0.298;2023-07-29T12:11:24;25.05;;;3.85;;
22614;SDS011;11474;50.790;0.298;2023-07-29T12:13:50;21.38;;;3.80;;
22614;SDS011;11474;50.790;0.298;2023-07-29T12:16:19;14.57;;;3.55;;
22614;SDS011;11474;50.790;0.298;2023-07-29T12:18:45;16.43;;;3.47;;
22614;SDS011;11474;50.790;0.298;2023-07-29T12:21:14;19.05;;;3.92;;
22614;SDS011;11474;50.790;0.298;2023-07-29T12:23:40;21.60;;;4.40;;
22614;SDS011;11474;50.790;0.298;2023-07-29T12:26:06;17.92;;;3.88;;
22614;SDS011;11474;50.790;0.298;2023-07-29T12:28:32;17.53;;;3.87;;
22614;SDS011;11474;50.790;0.298;2023-07-29T12:30:59;23.30;;;4.03;;
22614;SDS011;11474;50.790;0.298;2023-07-29T12:33:37;22.20;;;3.83;;
22614;SDS011;11474;50.790;0.298;2023-07-29T12:36:04;21.52;;;4.40;;
22614;SDS011;11474;50.790;0.298;2023-07-29T12:38:30;20.10;;;3.90;;
22614;SDS011;11474;50.790;0.298;2023-07-29T12:40:56;24.10;;;4.40;;
22614;SDS011;11474;50.790;0.298;2023-07-29T12:43:22;16.65;;;4.40;;
22614;SDS011;11474;50.790;0.298;2023-07-29T12:45:49;19.25;;;3.95;;
22614;SDS011;11474;50.790;0.298;2023-07-29T12:48:15;21.38;;;4.50;;
22614;SDS011;11474;50.790;0.298;2023-07-29T12:50:41;16.73;;;4.28;;
22614;SDS011;11474;50.790;0.298;2023-07-29T12:53:08;20.63;;;4.70;;
22614;SDS011;11474;50.790;0.298;2023-07-29T12:55:37;19.38;;;3.88;;
22614;SDS011;11474;50.790;0.298;2023-07-29T12:58:03;23.40;;;4.88;;
22614;SDS011;11474;50.790;0.298;2023-07-29T13:00:30;22.98;;;4.47;;
22614;SDS011;11474;50.790;0.298;2023-07-29T13:02:56;19.23;;;4.18;;
22614;SDS011;11474;50.790;0.298;2023-07-29T13:05:22;16.30;;;3.85;;
22614;SDS011;11474;50.790;0.298;2023-07-29T13:07:48;17.25;;;4.45;;
22614;SDS011;11474;50.790;0.298;2023-07-29T13:10:15;18.87;;;4.20;;
22614;SDS011;11474;50.790;0.298;2023-07-29T13:12:42;18.13;;;3.85;;
22614;SDS011;11474;50.790;0.298;2023-07-29T13:15:08;23.35;;;4.60;;
22614;SDS011;11474;50.790;0.298;2023-07-29T13:17:34;19.98;;;4.43;;
22614;SDS011;11474;50.790;0.298;2023-07-29T13:20:02;21.08;;;3.90;;
22614;SDS011;11474;50.790;0.298;2023-07-29T13:22:28;17.33;;;4.18;;
22614;SDS011;11474;50.790;0.298;2023-07-29T13:24:55;16.20;;;3.78;;
22614;SDS011;11474;50.790;0.298;2023-07-29T13:27:21;24.60;;;4.90;;
22614;SDS011;11474;50.790;0.298;2023-07-29T13:29:49;18.38;;;4.00;;
22614;SDS011;11474;50.790;0.298;2023-07-29T13:32:15;19.73;;;3.85;;
22614;SDS011;11474;50.790;0.298;2023-07-29T13:34:42;18.38;;;4.13;;
22614;SDS011;11474;50.790;0.298;2023-07-29T13:37:08;19.67;;;4.47;;
22614;SDS011;11474;50.790;0.298;2023-07-29T13:39:36;17.80;;;4.33;;
22614;SDS011;11474;50.790;0.298;2023-07-29T13:42:04;19.95;;;4.15;;
22614;SDS011;11474;50.790;0.298;2023-07-29T13:44:30;18.33;;;4.22;;
22614;SDS011;11474;50.790;0.298;2023-07-29T13:46:56;17.95;;;3.70;;
22614;SDS011;11474;50.790;0.298;2023-07-29T13:49:23;17.50;;;3.77;;
22614;SDS011;11474;50.790;0.298;2023-07-29T13:51:49;20.73;;;3.95;;
22614;SDS011;11474;50.790;0.298;2023-07-29T13:54:16;20.23;;;4.10;;
22614;SDS011;11474;50.790;0.298;2023-07-29T13:56:42;27.27;;;4.40;;
22614;SDS011;11474;50.790;0.298;2023-07-29T13:59:08;20.48;;;3.70;;
22614;SDS011;11474;50.790;0.298;2023-07-29T14:01:35;23.50;;;4.73;;
22614;SDS011;11474;50.790;0.298;2023-07-29T14:04:01;20.50;;;4.15;;
22614;SDS011;11474;50.790;0.298;2023-07-29T14:06:27;25.67;;;4.25;;
22614;SDS011;11474;50.790;0.298;2023-07-29T14:08:53;24.60;;;4.28;;
22614;SDS011;11474;50.790;0.298;2023-07-29T14:11:19;22.17;;;3.72;;
22614;SDS011;11474;50.790;0.298;2023-07-29T14:13:45;26.85;;;4.82;;
22614;SDS011;11474;50.790;0.298;2023-07-29T14:16:11;22.80;;;4.10;;
22614;SDS011;11474;50.790;0.298;2023-07-29T14:18:37;22.87;;;4.37;;
22614;SDS011;11474;50.790;0.298;2023-07-29T14:21:03;21.02;;;4.47;;
22614;SDS011;11474;50.790;0.298;2023-07-29T14:23:30;17.50;;;3.95;;
22614;SDS011;11474;50.790;0.298;2023-07-29T14:25:58;22.40;;;4.30;;
22614;SDS011;11474;50.790;0.298;2023-07-29T14:28:25;27.58;;;4.63;;
22614;SDS011;11474;50.790;0.298;2023-07-29T14:30:52;22.77;;;4.22;;
22614;SDS011;11474;50.790;0.298;2023-07-29T14:33:18;16.10;;;3.95;;
22614;SDS011;11474;50.790;0.298;2023-07-29T14:35:44;24.55;;;4.40;;
22614;SDS011;11474;50.790;0.298;2023-07-29T14:38:10;19.00;;;3.73;;
22614;SDS011;11474;50.790;0.298;2023-07-29T14:40:36;19.90;;;3.83;;
22614;SDS011;11474;50.790;0.298;2023-07-29T14:43:02;19.60;;;4.07;;
22614;SDS011;11474;50.790;0.298;2023-07-29T14:45:29;18.73;;;4.35;;
22614;SDS011;11474;50.790;0.298;2023-07-29T14:47:55;19.98;;;3.67;;